createdAt,value
2023-06-18T00:00:51.037Z,98157.11
2023-06-18T00:03:38.966Z,98153.64
2023-06-18T00:06:06.688Z,98154.39
2023-06-18T00:08:34.392Z,98154.06
2023-06-18T00:11:02.203Z,98153.55
2023-06-18T00:13:29.911Z,98156.87
2023-06-18T00:15:57.604Z,98151.42
2023-06-18T00:18:25.403Z,98149.67
2023-06-18T00:20:53.063Z,98142.83
2023-06-18T00:23:20.944Z,98142.31
2023-06-18T00:25:48.672Z,98138.30
2023-06-18T00:28:16.393Z,98137.10
2023-06-18T00:30:44.135Z,98137.30
2023-06-18T00:33:12.029Z,98137.83
2023-06-18T00:35:40.365Z,98136.25
2023-06-18T00:38:08.523Z,98133.45
2023-06-18T00:40:36.183Z,98133.97
2023-06-18T00:43:04.833Z,98139.41
2023-06-18T00:45:33.672Z,98134.85
2023-06-18T00:48:01.993Z,98135.05
2023-06-18T00:50:33.505Z,98137.17
2023-06-18T00:53:01.924Z,98138.77
2023-06-18T00:55:29.880Z,98137.04
2023-06-18T00:58:04.343Z,98140.20
2023-06-18T01:00:35.614Z,98137.59
2023-06-18T01:03:07.709Z,98135.33
2023-06-18T01:05:36.075Z,98130.41
2023-06-18T01:08:07.919Z,98130.23
2023-06-18T01:10:40.564Z,98128.48
2023-06-18T01:13:10.380Z,98127.63
2023-06-18T01:15:39.692Z,98125.69
2023-06-18T01:18:08.266Z,98125.20
2023-06-18T01:20:42.083Z,98131.52
2023-06-18T01:23:16.602Z,98140.45
2023-06-18T01:25:44.987Z,98146.80
2023-06-18T01:28:12.692Z,98149.25
2023-06-18T01:30:40.992Z,98148.90
2023-06-18T01:33:13.824Z,98151.34
2023-06-18T01:35:42.346Z,98152.24
2023-06-18T01:38:13.075Z,98152.59
2023-06-18T01:41:08.329Z,98152.95
2023-06-18T01:43:38.754Z,98151.39
2023-06-18T01:46:08.728Z,98151.22
2023-06-18T01:48:46.990Z,98154.21
2023-06-18T01:51:17.136Z,98154.76
2023-06-18T01:53:44.930Z,98155.80
2023-06-18T01:56:14.666Z,98158.80
2023-06-18T01:58:42.811Z,98158.61
2023-06-18T02:01:12.588Z,98159.48
2023-06-18T02:03:41.122Z,98160.70
2023-06-18T02:06:09.028Z,98160.54
2023-06-18T02:08:36.699Z,98160.54
2023-06-18T02:11:04.544Z,98161.24
2023-06-18T02:13:32.177Z,98164.23
2023-06-18T02:15:59.848Z,98168.79
2023-06-18T02:18:27.746Z,98167.92
2023-06-18T02:20:55.719Z,98170.89
2023-06-18T02:23:23.572Z,98176.84
2023-06-18T02:25:52.135Z,98182.09
2023-06-18T02:28:19.801Z,98179.81
2023-06-18T02:30:47.522Z,98179.29
2023-06-18T02:33:19.498Z,98182.27
2023-06-18T02:35:47.207Z,98178.59
2023-06-18T02:38:14.952Z,98178.59
2023-06-18T02:40:42.822Z,98180.30
2023-06-18T02:43:10.508Z,98182.40
2023-06-18T02:45:38.633Z,98183.96
2023-06-18T02:48:06.468Z,98181.50
2023-06-18T02:50:34.146Z,98186.73
2023-06-18T02:53:01.996Z,98186.21
2023-06-18T02:55:32.830Z,98182.02
2023-06-18T02:58:00.589Z,98182.73
2023-06-18T03:00:28.229Z,98181.34
2023-06-18T03:02:55.978Z,98187.64
2023-06-18T03:05:23.966Z,98187.63
2023-06-18T03:07:52.328Z,98189.73
2023-06-18T03:10:20.215Z,98192.00
2023-06-18T03:12:48.152Z,98192.71
2023-06-18T03:15:15.895Z,98190.44
2023-06-18T03:17:44.645Z,98194.99
2023-06-18T03:20:13.038Z,98192.36
2023-06-18T03:22:40.791Z,98193.59
2023-06-18T03:25:09.866Z,98196.23
2023-06-18T03:27:37.517Z,98195.54
2023-06-18T03:30:05.604Z,98193.09
2023-06-18T03:32:33.862Z,98195.38
2023-06-18T03:35:01.626Z,98195.73
2023-06-18T03:37:29.569Z,98198.20
2023-06-18T03:39:58.206Z,98197.16
2023-06-18T03:42:26.076Z,98195.77
2023-06-18T03:44:53.725Z,98196.98
2023-06-18T03:47:21.443Z,98199.61
2023-06-18T03:49:49.160Z,98197.52
2023-06-18T03:52:16.825Z,98202.05
2023-06-18T03:54:44.497Z,98201.70
2023-06-18T03:57:13.615Z,98198.02
2023-06-18T03:59:41.298Z,98202.20
2023-06-18T04:02:09.033Z,98207.96
2023-06-18T04:04:36.766Z,98204.45
2023-06-18T04:07:04.721Z,98206.36
2023-06-18T04:09:32.404Z,98206.52
2023-06-18T04:12:00.054Z,98212.45
2023-06-18T04:14:28.405Z,98213.30
2023-06-18T04:16:56.320Z,98212.39
2023-06-18T04:19:24.053Z,98214.98
2023-06-18T04:21:51.721Z,98214.73
2023-06-18T04:24:19.399Z,98218.19
2023-06-18T04:26:47.041Z,98219.70
2023-06-18T04:29:17.107Z,98219.14
2023-06-18T04:31:44.914Z,98216.45
2023-06-18T04:34:12.915Z,98220.44
2023-06-18T04:36:41.701Z,98220.53
2023-06-18T04:39:09.434Z,98228.71
2023-06-18T04:41:37.122Z,98228.63
2023-06-18T04:44:05.020Z,98230.69
2023-06-18T04:46:34.276Z,98229.75
2023-06-18T04:49:01.969Z,98230.59
2023-06-18T04:51:31.098Z,98235.16
2023-06-18T04:53:58.916Z,98235.10
2023-06-18T04:56:27.309Z,98232.02
2023-06-18T04:58:54.953Z,98228.42
2023-06-18T05:01:22.622Z,98224.11
2023-06-18T05:03:50.473Z,98227.56
2023-06-18T05:06:18.235Z,98229.60
2023-06-18T05:08:47.976Z,98231.66
2023-06-18T05:11:15.719Z,98234.75
2023-06-18T05:13:43.438Z,98232.00
2023-06-18T05:16:11.191Z,98238.04
2023-06-18T05:18:39.821Z,98237.58
2023-06-18T05:21:07.552Z,98237.52
2023-06-18T05:23:35.274Z,98241.34
2023-06-18T05:26:03.062Z,98238.96
2023-06-18T05:28:30.776Z,98240.81
2023-06-18T05:30:58.444Z,98239.14
2023-06-18T05:33:26.166Z,98246.77
2023-06-18T05:35:53.871Z,98247.76
2023-06-18T05:38:21.528Z,98246.80
2023-06-18T05:40:49.455Z,98248.65
2023-06-18T05:43:17.119Z,98248.86
2023-06-18T05:45:44.790Z,98248.71
2023-06-18T05:48:12.752Z,98254.23
2023-06-18T05:50:40.611Z,98244.11
2023-06-18T05:53:08.733Z,98251.79
2023-06-18T05:55:39.410Z,98248.69
2023-06-18T05:58:08.233Z,98244.87
2023-06-18T06:00:36.125Z,98246.48
2023-06-18T06:03:04.062Z,98244.73
2023-06-18T06:05:32.074Z,98248.00
2023-06-18T06:07:59.872Z,98246.34
2023-06-18T06:10:27.862Z,98249.43
2023-06-18T06:12:55.907Z,98252.86
2023-06-18T06:15:23.566Z,98253.99
2023-06-18T06:17:51.381Z,98260.55
2023-06-18T06:20:19.167Z,98260.93
2023-06-18T06:22:46.901Z,98263.62
2023-06-18T06:25:14.576Z,98268.98
2023-06-18T06:27:44.179Z,98265.71
2023-06-18T06:30:12.202Z,98269.33
2023-06-18T06:32:40.183Z,98271.64
2023-06-18T06:35:08.019Z,98272.15
2023-06-18T06:37:35.744Z,98271.10
2023-06-18T06:40:05.126Z,98267.96
2023-06-18T06:42:32.802Z,98270.29
2023-06-18T06:45:01.407Z,98264.54
2023-06-18T06:47:29.126Z,98267.69
2023-06-18T06:49:56.802Z,98270.86
2023-06-18T06:52:24.477Z,98270.69
2023-06-18T06:54:52.335Z,98267.90
2023-06-18T06:57:20.067Z,98271.17
2023-06-18T06:59:47.711Z,98272.45
2023-06-18T07:02:15.390Z,98268.90
2023-06-18T07:04:47.438Z,98268.87
2023-06-18T07:07:15.757Z,98265.52
2023-06-18T07:09:43.825Z,98266.56
2023-06-18T07:12:12.836Z,98267.47
2023-06-18T07:14:40.783Z,98272.17
2023-06-18T07:17:08.459Z,98263.87
2023-06-18T07:19:36.220Z,98268.92
2023-06-18T07:22:04.482Z,98266.67
2023-06-18T07:24:32.380Z,98266.53
2023-06-18T07:27:00.438Z,98271.02
2023-06-18T07:29:28.122Z,98271.15
2023-06-18T07:31:56.010Z,98276.05
2023-06-18T07:34:23.711Z,98275.54
2023-06-18T07:36:51.415Z,98274.92
2023-06-18T07:39:21.445Z,98276.08
2023-06-18T07:41:51.026Z,98275.86
2023-06-18T07:44:18.758Z,98274.38
2023-06-18T07:46:46.589Z,98269.70
2023-06-18T07:49:14.334Z,98275.33
2023-06-18T07:51:41.968Z,98278.57
2023-06-18T07:54:09.633Z,98277.37
2023-06-18T07:56:37.412Z,98273.28
2023-06-18T07:59:05.256Z,98273.61
2023-06-18T08:01:33.418Z,98273.83
2023-06-18T08:04:01.533Z,98282.61
2023-06-18T08:06:29.360Z,98277.48
2023-06-18T08:08:57.098Z,98283.40
2023-06-18T08:11:25.322Z,98281.95
2023-06-18T08:13:52.991Z,98283.36
2023-06-18T08:16:23.545Z,98284.80
2023-06-18T08:18:54.308Z,98289.67
2023-06-18T08:21:23.203Z,98292.55
2023-06-18T08:23:51.678Z,98283.56
2023-06-18T08:26:20.495Z,98286.86
2023-06-18T08:28:48.961Z,98285.29
2023-06-18T08:31:16.702Z,98286.27
2023-06-18T08:33:44.339Z,98289.49
2023-06-18T08:36:12.255Z,98290.90
2023-06-18T08:38:39.963Z,98291.66
2023-06-18T08:41:08.945Z,98289.16
2023-06-18T08:43:38.520Z,98286.64
2023-06-18T08:46:16.873Z,98289.34
2023-06-18T08:48:46.172Z,98289.05
2023-06-18T08:51:14.104Z,98289.52
2023-06-18T08:53:46.009Z,98285.29
2023-06-18T08:56:17.046Z,98284.48
2023-06-18T08:58:50.129Z,98285.36
2023-06-18T09:01:21.675Z,98289.71
2023-06-18T09:03:49.783Z,98287.77
2023-06-18T09:06:17.426Z,98289.48
2023-06-18T09:08:45.298Z,98292.07
2023-06-18T09:11:13.132Z,98291.96
2023-06-18T09:13:42.734Z,98287.23
2023-06-18T09:16:10.908Z,98288.27
2023-06-18T09:18:38.709Z,98285.20
2023-06-18T09:21:06.947Z,98285.33
2023-06-18T09:23:34.862Z,98285.09
2023-06-18T09:26:02.742Z,98284.20
2023-06-18T09:28:30.447Z,98279.89
2023-06-18T09:30:59.980Z,98282.13
2023-06-18T09:33:33.050Z,98278.10
2023-06-18T09:36:04.357Z,98281.46
2023-06-18T09:38:35.857Z,98281.79
2023-06-18T09:41:03.764Z,98280.92
2023-06-18T09:43:36.089Z,98278.09
2023-06-18T09:46:10.976Z,98276.73
2023-06-18T09:48:43.178Z,98271.72
2023-06-18T09:51:11.479Z,98271.73
2023-06-18T09:53:39.190Z,98268.09
2023-06-18T09:56:17.833Z,98268.33
2023-06-18T09:58:48.669Z,98265.91
2023-06-18T10:01:17.623Z,98265.21
2023-06-18T10:03:46.086Z,98264.63
2023-06-18T10:06:18.513Z,98265.50
2023-06-18T10:08:48.031Z,98259.77
2023-06-18T10:11:16.730Z,98255.95
2023-06-18T10:13:50.644Z,98257.97
2023-06-18T10:16:19.165Z,98262.65
2023-06-18T10:18:59.254Z,98261.73
2023-06-18T10:21:27.205Z,98258.48
2023-06-18T10:24:09.030Z,98250.83
2023-06-18T10:26:38.070Z,98254.40
2023-06-18T10:29:06.517Z,98258.33
2023-06-18T10:31:34.165Z,98261.05
2023-06-18T10:34:01.905Z,98257.83
2023-06-18T10:36:29.892Z,98261.19
2023-06-18T10:38:58.224Z,98267.30
2023-06-18T10:41:26.370Z,98260.67
2023-06-18T10:43:54.825Z,98257.94
2023-06-18T10:46:23.075Z,98267.16
2023-06-18T10:49:21.260Z,98270.38
2023-06-18T10:51:58.154Z,98273.92
2023-06-18T10:54:30.558Z,98285.23
2023-06-18T10:56:58.981Z,98291.98
2023-06-18T10:59:46.719Z,98295.81
2023-06-18T11:02:15.039Z,98292.63
2023-06-18T11:04:42.889Z,98287.44
2023-06-18T11:07:21.308Z,98290.15
2023-06-18T11:09:58.885Z,98287.16
2023-06-18T11:12:28.697Z,98289.26
2023-06-18T11:15:16.921Z,98287.41
2023-06-18T11:17:50.436Z,98288.84
2023-06-18T11:20:20.165Z,98292.39
2023-06-18T11:22:48.358Z,98282.64
2023-06-18T11:25:16.419Z,98276.09
2023-06-18T11:27:46.088Z,98270.59
2023-06-18T11:30:14.660Z,98269.14
2023-06-18T11:32:42.645Z,98270.19
2023-06-18T11:35:11.276Z,98266.64
2023-06-18T11:37:39.876Z,98271.92
2023-06-18T11:40:09.455Z,98266.71
2023-06-18T11:42:38.898Z,98268.58
2023-06-18T11:45:07.198Z,98265.51
2023-06-18T11:47:35.977Z,98262.06
2023-06-18T11:50:04.129Z,98263.14
2023-06-18T11:52:31.949Z,98253.03
2023-06-18T11:55:04.787Z,98249.91
2023-06-18T11:57:32.931Z,98250.33
2023-06-18T12:00:00.797Z,98247.21
2023-06-18T12:02:29.027Z,98247.33
2023-06-18T12:05:02.757Z,98241.86
2023-06-18T12:07:31.063Z,98241.55
2023-06-18T12:10:02.290Z,98242.78
2023-06-18T12:12:36.146Z,98240.86
2023-06-18T12:15:18.009Z,98241.02
2023-06-18T12:17:59.442Z,98241.45
2023-06-18T12:20:29.405Z,98235.95
2023-06-18T12:22:58.570Z,98228.10
2023-06-18T12:25:29.044Z,98225.74
2023-06-18T12:27:57.927Z,98228.95
2023-06-18T12:30:32.460Z,98226.63
2023-06-18T12:33:10.782Z,98229.83
2023-06-18T12:35:41.391Z,98221.38
2023-06-18T12:38:09.969Z,98223.17
2023-06-18T12:40:51.496Z,98220.60
2023-06-18T12:43:20.310Z,98222.30
2023-06-18T12:45:52.066Z,98228.73
2023-06-18T12:48:22.474Z,98224.63
2023-06-18T12:50:51.514Z,98227.82
2023-06-18T12:53:24.210Z,98227.56
2023-06-18T12:55:55.218Z,98233.07
2023-06-18T12:58:27.828Z,98229.95
2023-06-18T13:00:58.467Z,98227.21
2023-06-18T13:03:27.786Z,98223.83
2023-06-18T13:05:57.050Z,98223.52
2023-06-18T13:08:24.750Z,98224.10
2023-06-18T13:10:53.602Z,98223.58
2023-06-18T13:13:21.338Z,98220.64
2023-06-18T13:15:49.880Z,98224.91
2023-06-18T13:18:19.126Z,98220.09
2023-06-18T13:20:47.880Z,98221.26
2023-06-18T13:23:16.563Z,98224.58
2023-06-18T13:25:44.815Z,98221.64
2023-06-18T13:28:12.754Z,98213.96
2023-06-18T13:30:40.480Z,98212.45
2023-06-18T13:33:09.018Z,98221.56
2023-06-18T13:35:36.861Z,98227.19
2023-06-18T13:38:04.625Z,98229.37
2023-06-18T13:40:32.325Z,98226.85
2023-06-18T13:43:00.121Z,98222.80
2023-06-18T13:45:28.179Z,98217.00
2023-06-18T13:47:56.257Z,98212.90
2023-06-18T13:50:24.049Z,98209.62
2023-06-18T13:52:51.750Z,98203.69
2023-06-18T13:55:19.587Z,98198.02
2023-06-18T13:57:47.289Z,98201.70
2023-06-18T14:00:15.659Z,98202.77
2023-06-18T14:02:43.484Z,98201.94
2023-06-18T14:05:12.172Z,98205.84
2023-06-18T14:07:40.263Z,98206.29
2023-06-18T14:10:08.481Z,98206.03
2023-06-18T14:12:36.505Z,98214.71
2023-06-18T14:15:04.852Z,98215.58
2023-06-18T14:17:32.595Z,98220.81
2023-06-18T14:20:00.422Z,98222.55
2023-06-18T14:22:28.242Z,98225.64
2023-06-18T14:24:57.126Z,98224.30
2023-06-18T14:27:24.933Z,98228.23
2023-06-18T14:29:52.758Z,98229.45
2023-06-18T14:32:23.758Z,98231.14
2023-06-18T14:34:54.482Z,98240.56
2023-06-18T14:37:23.278Z,98246.36
2023-06-18T14:39:51.530Z,98249.34
2023-06-18T14:42:19.442Z,98245.26
2023-06-18T14:44:47.209Z,98245.34
2023-06-18T14:47:14.887Z,98241.32
2023-06-18T14:49:42.610Z,98242.88
2023-06-18T14:52:10.378Z,98237.27
2023-06-18T14:54:40.585Z,98233.61
2023-06-18T14:57:08.336Z,98233.02
2023-06-18T14:59:37.607Z,98224.88
2023-06-18T15:02:16.158Z,98222.05
2023-06-18T15:04:54.735Z,98213.67
2023-06-18T15:07:22.456Z,98222.30
2023-06-18T15:09:50.126Z,98219.07
2023-06-18T15:12:17.826Z,98218.59
2023-06-18T15:14:46.124Z,98218.11
2023-06-18T15:17:14.433Z,98213.89
2023-06-18T15:19:42.752Z,98210.94
2023-06-18T15:22:10.499Z,98206.85
2023-06-18T15:24:38.267Z,98206.38
2023-06-18T15:27:06.655Z,98204.95
2023-06-18T15:29:35.597Z,98203.59
2023-06-18T15:32:03.490Z,98204.70
2023-06-18T15:34:31.160Z,98208.63
2023-06-18T15:36:58.835Z,98203.56
2023-06-18T15:39:27.089Z,98203.07
2023-06-18T15:41:54.864Z,98205.65
2023-06-18T15:44:22.599Z,98207.83
2023-06-18T15:46:50.374Z,98208.91
2023-06-18T15:49:18.381Z,98207.37
2023-06-18T15:51:46.126Z,98209.80
2023-06-18T15:54:13.794Z,98203.84
2023-06-18T15:56:43.682Z,98203.17
2023-06-18T15:59:11.730Z,98202.80
2023-06-18T16:01:39.581Z,98204.86
2023-06-18T16:04:07.281Z,98205.34
2023-06-18T16:06:34.942Z,98204.40
2023-06-18T16:09:02.842Z,98207.59
2023-06-18T16:11:30.755Z,98202.86
2023-06-18T16:13:59.205Z,98202.54
2023-06-18T16:16:30.413Z,98210.00
2023-06-18T16:18:58.412Z,98212.94
2023-06-18T16:21:28.865Z,98215.23
2023-06-18T16:23:56.742Z,98216.24
2023-06-18T16:26:26.411Z,98218.73
2023-06-18T16:28:54.367Z,98219.63
2023-06-18T16:31:22.388Z,98217.52
2023-06-18T16:33:50.382Z,98215.60
2023-06-18T16:36:18.391Z,98210.85
2023-06-18T16:38:46.132Z,98212.02
2023-06-18T16:41:14.062Z,98209.89
2023-06-18T16:43:41.700Z,98204.84
2023-06-18T16:46:10.399Z,98205.92
2023-06-18T16:48:38.125Z,98204.48
2023-06-18T16:51:05.838Z,98206.89
2023-06-18T16:53:33.518Z,98210.95
2023-06-18T16:56:01.218Z,98215.02
2023-06-18T16:58:28.877Z,98212.36
2023-06-18T17:00:57.322Z,98213.23
2023-06-18T17:03:25.092Z,98214.20
2023-06-18T17:05:54.871Z,98217.12
2023-06-18T17:08:23.474Z,98214.54
2023-06-18T17:10:51.733Z,98217.52
2023-06-18T17:13:19.476Z,98217.77
2023-06-18T17:15:49.057Z,98220.16
2023-06-18T17:18:18.312Z,98215.84
2023-06-18T17:20:45.976Z,98217.55
2023-06-18T17:23:13.623Z,98213.97
2023-06-18T17:25:41.621Z,98217.25
2023-06-18T17:28:10.370Z,98217.48
2023-06-18T17:30:38.146Z,98221.30
2023-06-18T17:33:06.490Z,98222.14
2023-06-18T17:35:34.387Z,98225.13
2023-06-18T17:38:02.010Z,98222.31
2023-06-18T17:40:29.922Z,98222.31
2023-06-18T17:42:57.600Z,98220.36
2023-06-18T17:45:26.454Z,98220.26
2023-06-18T17:47:54.579Z,98219.40
2023-06-18T17:50:22.242Z,98222.25
2023-06-18T17:52:50.117Z,98222.44
2023-06-18T17:55:18.038Z,98230.63
2023-06-18T17:57:45.877Z,98229.52
2023-06-18T18:00:14.837Z,98230.48
2023-06-18T18:02:42.695Z,98234.11
2023-06-18T18:05:10.568Z,98234.25
2023-06-18T18:07:38.231Z,98246.94
2023-06-18T18:10:06.644Z,98243.73
2023-06-18T18:12:34.325Z,98244.45
2023-06-18T18:15:02.047Z,98245.52
2023-06-18T18:17:29.715Z,98250.79
2023-06-18T18:19:57.931Z,98255.09
2023-06-18T18:22:25.713Z,98254.41
2023-06-18T18:24:53.408Z,98254.83
2023-06-18T18:27:21.189Z,98262.23
2023-06-18T18:29:48.905Z,98259.23
2023-06-18T18:32:17.144Z,98259.52
2023-06-18T18:34:44.916Z,98256.91
2023-06-18T18:37:13.139Z,98261.23
2023-06-18T18:39:42.567Z,98263.91
2023-06-18T18:42:10.656Z,98267.21
2023-06-18T18:44:40.203Z,98265.01
2023-06-18T18:47:08.535Z,98270.55
2023-06-18T18:49:36.350Z,98271.88
2023-06-18T18:52:04.469Z,98273.63
2023-06-18T18:54:32.835Z,98276.96
2023-06-18T18:57:00.578Z,98283.06
2023-06-18T18:59:28.255Z,98282.80
2023-06-18T19:01:56.094Z,98276.80
2023-06-18T19:04:23.768Z,98280.84
2023-06-18T19:06:51.430Z,98281.10
2023-06-18T19:09:20.197Z,98285.73
2023-06-18T19:11:47.872Z,98279.88
2023-06-18T19:14:15.533Z,98286.98
2023-06-18T19:16:43.476Z,98287.28
2023-06-18T19:19:11.343Z,98289.04
2023-06-18T19:21:39.041Z,98292.55
2023-06-18T19:24:06.933Z,98296.02
2023-06-18T19:26:34.657Z,98292.75
2023-06-18T19:29:03.827Z,98297.08
2023-06-18T19:31:31.565Z,98297.65
2023-06-18T19:33:59.330Z,98301.38
2023-06-18T19:36:26.973Z,98302.41
2023-06-18T19:38:54.810Z,98298.51
2023-06-18T19:41:22.562Z,98301.51
2023-06-18T19:43:50.210Z,98305.70
2023-06-18T19:46:18.101Z,98307.05
2023-06-18T19:48:45.979Z,98307.86
2023-06-18T19:51:16.844Z,98313.97
2023-06-18T19:53:45.357Z,98315.11
2023-06-18T19:56:14.132Z,98316.77
2023-06-18T19:58:41.850Z,98321.41
2023-06-18T20:01:09.661Z,98319.68
2023-06-18T20:03:38.765Z,98317.05
2023-06-18T20:06:06.630Z,98321.03
2023-06-18T20:08:34.485Z,98323.94
2023-06-18T20:11:02.409Z,98327.17
2023-06-18T20:13:30.113Z,98327.99
2023-06-18T20:15:58.105Z,98331.85
2023-06-18T20:18:25.764Z,98330.03
2023-06-18T20:20:55.510Z,98337.41
2023-06-18T20:23:23.423Z,98338.59
2023-06-18T20:25:51.117Z,98346.30
2023-06-18T20:28:18.866Z,98343.96
2023-06-18T20:30:46.549Z,98344.97
2023-06-18T20:33:14.573Z,98341.20
2023-06-18T20:35:42.259Z,98341.28
2023-06-18T20:38:10.187Z,98342.09
2023-06-18T20:40:38.331Z,98341.14
2023-06-18T20:43:06.048Z,98339.60
2023-06-18T20:45:33.763Z,98337.66
2023-06-18T20:48:01.628Z,98339.76
2023-06-18T20:50:29.627Z,98337.30
2023-06-18T20:52:57.278Z,98339.27
2023-06-18T20:55:24.939Z,98337.55
2023-06-18T20:57:52.763Z,98333.73
2023-06-18T21:00:20.665Z,98334.70
2023-06-18T21:02:48.922Z,98330.23
2023-06-18T21:05:16.992Z,98326.14
2023-06-18T21:07:44.736Z,98329.23
2023-06-18T21:10:12.554Z,98326.88
2023-06-18T21:12:40.220Z,98325.92
2023-06-18T21:15:08.662Z,98326.77
2023-06-18T21:17:36.344Z,98326.86
2023-06-18T21:20:04.392Z,98324.63
2023-06-18T21:22:32.091Z,98331.02
2023-06-18T21:24:59.764Z,98331.77
2023-06-18T21:27:27.400Z,98331.65
2023-06-18T21:29:55.117Z,98331.89
2023-06-18T21:32:22.816Z,98329.69
2023-06-18T21:34:50.478Z,98326.42
2023-06-18T21:37:18.191Z,98326.33
2023-06-18T21:39:47.753Z,98325.17
2023-06-18T21:42:17.045Z,98322.96
2023-06-18T21:44:44.752Z,98324.11
2023-06-18T21:47:12.434Z,98322.95
2023-06-18T21:49:40.161Z,98320.91
2023-06-18T21:52:08.324Z,98317.23
2023-06-18T21:54:35.979Z,98315.47
2023-06-18T21:57:03.868Z,98316.18
2023-06-18T21:59:31.622Z,98316.79
2023-06-18T22:01:59.325Z,98315.80
2023-06-18T22:04:27.011Z,98319.90
2023-06-18T22:06:54.904Z,98323.30
2023-06-18T22:09:24.315Z,98322.51
2023-06-18T22:11:52.318Z,98320.48
2023-06-18T22:14:20.092Z,98319.00
2023-06-18T22:16:48.646Z,98323.66
2023-06-18T22:19:16.577Z,98321.83
2023-06-18T22:21:44.287Z,98317.48
2023-06-18T22:24:12.759Z,98321.42
2023-06-18T22:26:43.046Z,98323.90
2023-06-18T22:29:10.720Z,98320.42
2023-06-18T22:31:38.486Z,98321.87
2023-06-18T22:34:06.144Z,98323.67
2023-06-18T22:36:33.826Z,98323.90
2023-06-18T22:39:01.556Z,98319.72
2023-06-18T22:41:29.355Z,98320.15
2023-06-18T22:43:57.018Z,98316.00
2023-06-18T22:46:24.808Z,98316.78
2023-06-18T22:48:52.537Z,98315.25
2023-06-18T22:51:20.234Z,98313.85
2023-06-18T22:53:47.874Z,98313.14
2023-06-18T22:56:15.495Z,98314.59
2023-06-18T22:58:43.209Z,98312.86
2023-06-18T23:01:10.932Z,98312.75
2023-06-18T23:03:38.813Z,98315.27
2023-06-18T23:06:06.598Z,98314.64
2023-06-18T23:08:34.277Z,98311.18
2023-06-18T23:11:02.050Z,98313.35
2023-06-18T23:13:29.752Z,98312.16
2023-06-18T23:15:57.411Z,98312.73
2023-06-18T23:18:27.594Z,98318.37
2023-06-18T23:20:55.733Z,98323.27
2023-06-18T23:23:23.445Z,98316.95
2023-06-18T23:25:51.060Z,98315.39
2023-06-18T23:28:18.793Z,98318.60
2023-06-18T23:30:47.540Z,98319.34
2023-06-18T23:33:15.293Z,98316.58
2023-06-18T23:35:44.502Z,98317.86
2023-06-18T23:38:12.662Z,98316.85
2023-06-18T23:40:40.498Z,98315.83
2023-06-18T23:43:08.195Z,98322.19
2023-06-18T23:45:35.887Z,98328.35
2023-06-18T23:48:03.997Z,98329.39
2023-06-18T23:50:31.860Z,98331.17
2023-06-18T23:52:59.540Z,98331.56
2023-06-18T23:55:27.184Z,98329.29
2023-06-18T23:57:55.087Z,98327.55
